createdAt,value
2022-08-30T00:01:32.610Z,100.00
2022-08-30T00:04:35.028Z,100.00
2022-08-30T00:07:36.662Z,100.00
2022-08-30T00:10:38.699Z,100.00
2022-08-30T00:13:41.187Z,100.00
2022-08-30T00:16:42.681Z,100.00
2022-08-30T00:19:44.418Z,100.00
2022-08-30T00:22:46.167Z,100.00
2022-08-30T00:25:47.859Z,100.00
2022-08-30T00:28:49.352Z,100.00
2022-08-30T00:31:50.880Z,100.00
2022-08-30T00:34:52.480Z,100.00
2022-08-30T00:37:54.031Z,100.00
2022-08-30T00:40:55.572Z,100.00
2022-08-30T00:43:57.196Z,100.00
2022-08-30T00:46:58.766Z,100.00
2022-08-30T00:50:00.359Z,100.00
2022-08-30T00:53:03.165Z,100.00
2022-08-30T00:56:04.968Z,100.00
2022-08-30T00:59:06.631Z,100.00
2022-08-30T01:02:08.236Z,100.00
2022-08-30T01:05:11.010Z,100.00
2022-08-30T01:08:18.477Z,100.00
2022-08-30T01:11:21.537Z,100.00
2022-08-30T01:14:25.838Z,100.00
2022-08-30T01:17:27.972Z,100.00
2022-08-30T01:20:54.588Z,100.00
2022-08-30T01:23:56.333Z,100.00
2022-08-30T01:26:58.020Z,100.00
2022-08-30T01:29:59.515Z,100.00
2022-08-30T01:33:02.674Z,100.00
2022-08-30T01:36:06.499Z,100.00
2022-08-30T01:39:08.649Z,100.00
2022-08-30T01:42:10.168Z,100.00
2022-08-30T01:45:12.009Z,100.00
2022-08-30T01:48:13.524Z,100.00
2022-08-30T01:51:15.251Z,100.00
2022-08-30T01:54:16.822Z,100.00
2022-08-30T01:57:20.966Z,100.00
2022-08-30T02:00:22.521Z,100.00
2022-08-30T02:03:24.664Z,100.00
2022-08-30T02:06:26.673Z,100.00
2022-08-30T02:09:28.068Z,100.00
2022-08-30T02:12:30.418Z,100.00
2022-08-30T02:15:33.034Z,100.00
2022-08-30T02:18:43.313Z,100.00
2022-08-30T02:21:44.795Z,100.00
2022-08-30T02:24:46.533Z,100.00
2022-08-30T02:27:48.364Z,100.00
2022-08-30T02:30:49.950Z,100.00
2022-08-30T02:33:51.982Z,100.00
2022-08-30T02:36:53.502Z,100.00
2022-08-30T02:39:55.021Z,100.00
2022-08-30T02:42:57.003Z,100.00
2022-08-30T02:45:59.169Z,100.00
2022-08-30T02:49:13.171Z,100.00
2022-08-30T02:52:27.924Z,100.00
2022-08-30T02:55:29.661Z,100.00
2022-08-30T02:58:31.154Z,100.00
2022-08-30T03:01:36.541Z,100.00
2022-08-30T03:04:39.343Z,100.00
2022-08-30T03:07:41.337Z,100.00
2022-08-30T03:10:42.850Z,100.00
2022-08-30T03:13:44.339Z,100.00
2022-08-30T03:16:45.911Z,100.00
2022-08-30T03:19:47.473Z,100.00
2022-08-30T03:22:49.108Z,100.00
2022-08-30T03:25:50.683Z,100.00
2022-08-30T03:28:52.219Z,100.00
2022-08-30T03:31:53.990Z,100.00
2022-08-30T03:34:55.627Z,100.00
2022-08-30T03:37:58.100Z,100.00
2022-08-30T03:41:00.135Z,100.00
2022-08-30T03:44:01.598Z,100.00
2022-08-30T03:47:04.023Z,100.00
2022-08-30T03:50:05.889Z,100.00
2022-08-30T03:53:07.539Z,100.00
2022-08-30T03:56:09.046Z,100.00
2022-08-30T03:59:10.560Z,100.00
2022-08-30T04:02:12.100Z,100.00
2022-08-30T04:05:14.758Z,100.00
2022-08-30T04:08:20.248Z,100.00
2022-08-30T04:11:22.024Z,100.00
2022-08-30T04:14:23.528Z,100.00
2022-08-30T04:17:25.048Z,100.00
2022-08-30T04:20:27.544Z,100.00
2022-08-30T04:23:29.263Z,100.00
2022-08-30T04:26:30.771Z,100.00
2022-08-30T04:29:32.931Z,100.00
2022-08-30T04:32:35.491Z,100.00
2022-08-30T04:35:37.207Z,100.00
2022-08-30T04:38:39.396Z,100.00
2022-08-30T04:41:40.946Z,100.00
2022-08-30T04:44:42.479Z,100.00
2022-08-30T04:47:43.997Z,100.00
2022-08-30T04:50:45.708Z,100.00
2022-08-30T04:53:47.259Z,100.00
2022-08-30T04:56:48.757Z,100.00
2022-08-30T04:59:50.298Z,100.00
2022-08-30T05:02:51.791Z,100.00
2022-08-30T05:05:53.411Z,100.00
2022-08-30T05:08:55.461Z,100.00
2022-08-30T05:11:57.054Z,100.00
2022-08-30T05:14:58.704Z,100.00
2022-08-30T05:18:00.324Z,100.00
2022-08-30T05:21:10.481Z,100.00
2022-08-30T05:24:12.098Z,100.00
2022-08-30T05:27:13.692Z,100.00
2022-08-30T05:30:15.686Z,100.00
2022-08-30T05:33:17.287Z,100.00
2022-08-30T05:36:19.671Z,100.00
2022-08-30T05:39:21.311Z,100.00
2022-08-30T05:42:23.698Z,100.00
2022-08-30T05:45:25.325Z,100.00
2022-08-30T05:48:26.918Z,100.00
2022-08-30T05:51:29.112Z,100.00
2022-08-30T05:54:30.707Z,100.00
2022-08-30T05:57:33.893Z,100.00
2022-08-30T06:00:38.075Z,100.00
2022-08-30T06:03:39.667Z,100.00
2022-08-30T06:06:42.446Z,100.00
2022-08-30T06:09:44.410Z,100.00
2022-08-30T06:12:45.819Z,100.00
2022-08-30T06:15:47.434Z,100.00
2022-08-30T06:18:49.038Z,100.00
2022-08-30T06:21:50.838Z,100.00
2022-08-30T06:24:59.354Z,100.00
2022-08-30T06:28:00.948Z,100.00
2022-08-30T06:31:05.377Z,100.00
2022-08-30T06:34:07.117Z,100.00
2022-08-30T06:37:08.646Z,100.00
2022-08-30T06:40:11.195Z,100.00
2022-08-30T06:43:12.758Z,100.00
2022-08-30T06:46:16.626Z,100.00
2022-08-30T06:49:18.268Z,100.00
2022-08-30T06:52:19.779Z,100.00
2022-08-30T06:55:21.371Z,100.00
2022-08-30T06:58:22.918Z,100.00
2022-08-30T07:01:25.822Z,100.00
2022-08-30T07:04:28.010Z,100.00
2022-08-30T07:07:29.515Z,100.00
2022-08-30T07:10:31.438Z,100.00
2022-08-30T07:13:33.766Z,100.00
2022-08-30T07:16:35.659Z,100.00
2022-08-30T07:19:37.235Z,100.00
2022-08-30T07:22:38.830Z,100.00
2022-08-30T07:25:41.387Z,100.00
2022-08-30T07:28:43.914Z,100.00
2022-08-30T07:31:45.595Z,100.00
2022-08-30T07:34:47.237Z,100.00
2022-08-30T07:37:53.316Z,100.00
2022-08-30T07:40:55.120Z,100.00
2022-08-30T07:43:56.609Z,100.00
2022-08-30T07:46:58.190Z,100.00
2022-08-30T07:50:00.611Z,100.00
2022-08-30T07:53:02.270Z,100.00
2022-08-30T07:56:04.761Z,100.00
2022-08-30T07:59:06.552Z,100.00
2022-08-30T08:02:07.989Z,100.00
2022-08-30T08:05:12.794Z,100.00
2022-08-30T08:08:18.138Z,100.00
2022-08-30T08:11:24.720Z,100.00
2022-08-30T08:14:26.412Z,100.00
2022-08-30T08:17:28.017Z,100.00
2022-08-30T08:20:29.497Z,100.00
2022-08-30T08:23:32.500Z,100.00
2022-08-30T08:26:35.807Z,100.00
2022-08-30T08:29:37.411Z,100.00
2022-08-30T08:32:39.550Z,100.00
2022-08-30T08:35:43.439Z,100.00
2022-08-30T08:38:45.143Z,100.00
2022-08-30T08:41:52.760Z,100.00
2022-08-30T08:45:07.450Z,100.00
2022-08-30T08:48:32.029Z,100.00
2022-08-30T08:52:05.790Z,99.96
2022-08-30T08:55:10.393Z,97.42
2022-08-30T08:58:26.234Z,97.72
2022-08-30T09:01:29.930Z,96.16
2022-08-30T09:04:34.690Z,94.54
2022-08-30T09:07:38.432Z,94.49
2022-08-30T09:10:50.582Z,94.28
2022-08-30T09:13:52.744Z,93.36
2022-08-30T09:17:02.854Z,94.79
2022-08-30T09:20:05.359Z,93.81
2022-08-30T09:23:16.106Z,93.09
2022-08-30T09:26:29.012Z,91.74
2022-08-30T09:29:31.473Z,92.71
2022-08-30T09:32:35.281Z,91.75
2022-08-30T09:35:48.341Z,91.46
2022-08-30T09:38:57.448Z,91.51
2022-08-30T09:42:28.987Z,90.47
2022-08-30T09:45:36.144Z,90.82
2022-08-30T09:48:47.425Z,89.50
2022-08-30T09:51:59.314Z,89.64
2022-08-30T09:55:19.857Z,89.99
2022-08-30T09:58:43.535Z,92.26
2022-08-30T10:01:47.598Z,91.91
2022-08-30T10:05:11.994Z,89.34
2022-08-30T10:08:16.510Z,89.10
2022-08-30T10:11:48.478Z,89.83
2022-08-30T10:14:51.469Z,90.91
2022-08-30T10:17:59.002Z,88.30
2022-08-30T10:21:18.932Z,86.50
2022-08-30T10:24:24.398Z,86.17
2022-08-30T10:27:30.181Z,83.79
2022-08-30T10:30:33.911Z,86.04
2022-08-30T10:33:41.147Z,86.12
2022-08-30T10:36:45.045Z,86.36
2022-08-30T10:39:48.958Z,88.53
2022-08-30T10:42:51.150Z,87.63
2022-08-30T10:45:53.689Z,87.86
2022-08-30T10:48:55.315Z,87.28
2022-08-30T10:52:11.981Z,88.47
2022-08-30T10:55:19.515Z,89.42
2022-08-30T10:58:21.165Z,89.23
2022-08-30T11:01:46.539Z,90.07
2022-08-30T11:04:53.240Z,88.80
2022-08-30T11:08:01.166Z,88.37
2022-08-30T11:11:31.036Z,85.46
2022-08-30T11:14:32.731Z,84.21
2022-08-30T11:17:55.035Z,80.41
2022-08-30T11:21:24.658Z,79.27
2022-08-30T11:24:26.313Z,77.47
2022-08-30T11:27:49.314Z,77.85
2022-08-30T11:30:53.223Z,77.56
2022-08-30T11:33:57.135Z,77.31
2022-08-30T11:37:03.336Z,75.34
2022-08-30T11:40:20.411Z,76.12
2022-08-30T11:43:34.029Z,77.84
2022-08-30T11:46:36.895Z,79.12
2022-08-30T11:50:09.888Z,78.64
2022-08-30T11:53:29.293Z,75.64
2022-08-30T11:56:49.136Z,75.36
2022-08-30T11:59:50.610Z,74.59
2022-08-30T12:02:59.359Z,72.20
2022-08-30T12:06:07.970Z,70.61
2022-08-30T12:09:11.314Z,70.65
2022-08-30T12:12:38.350Z,68.99
2022-08-30T12:16:22.040Z,68.56
2022-08-30T12:19:24.567Z,66.19
2022-08-30T12:22:27.092Z,65.08
2022-08-30T12:25:33.205Z,63.78
2022-08-30T12:28:34.724Z,64.01
2022-08-30T12:31:49.836Z,62.28
2022-08-30T12:34:56.454Z,63.36
2022-08-30T12:38:02.098Z,61.35
2022-08-30T12:41:05.612Z,60.61
2022-08-30T12:44:10.000Z,59.95
2022-08-30T12:47:12.693Z,60.98
2022-08-30T12:50:25.530Z,63.66
2022-08-30T12:53:45.744Z,57.26
2022-08-30T12:57:19.143Z,52.97
2022-08-30T13:00:35.093Z,48.56
2022-08-30T13:03:36.723Z,50.36
2022-08-30T13:06:39.775Z,53.49
2022-08-30T13:09:42.639Z,52.27
2022-08-30T13:13:01.101Z,52.17
2022-08-30T13:16:26.119Z,54.09
2022-08-30T13:19:39.438Z,54.11
2022-08-30T13:22:43.320Z,54.41
2022-08-30T13:25:45.076Z,55.24
2022-08-30T13:28:54.495Z,55.90
2022-08-30T13:31:57.097Z,55.03
2022-08-30T13:34:58.766Z,53.84
2022-08-30T13:38:00.867Z,52.47
2022-08-30T13:41:02.557Z,50.82
2022-08-30T13:44:13.553Z,51.07
2022-08-30T13:47:34.566Z,52.05
2022-08-30T13:50:36.865Z,51.09
2022-08-30T13:53:54.440Z,46.36
2022-08-30T13:56:56.314Z,44.85
2022-08-30T13:59:58.075Z,43.11
2022-08-30T14:03:00.204Z,44.23
2022-08-30T14:06:29.248Z,40.96
2022-08-30T14:09:23.653Z,40.51
2022-08-30T14:15:48.409Z,40.38
2022-08-30T14:18:51.284Z,41.77
2022-08-30T14:21:52.861Z,37.92
2022-08-30T14:24:54.514Z,42.36
2022-08-30T14:27:57.029Z,43.55
2022-08-30T14:30:58.646Z,42.87
2022-08-30T14:34:01.720Z,43.26
2022-08-30T14:37:06.789Z,42.48
2022-08-30T14:40:09.334Z,43.27
2022-08-30T14:43:10.980Z,46.35
2022-08-30T14:46:12.686Z,48.19
2022-08-30T14:49:14.440Z,48.51
2022-08-30T14:52:16.073Z,49.30
2022-08-30T14:55:17.722Z,48.84
2022-08-30T14:58:19.386Z,50.44
2022-08-30T15:01:22.366Z,51.01
2022-08-30T15:04:24.162Z,50.18
2022-08-30T15:07:26.855Z,50.46
2022-08-30T15:10:28.692Z,51.04
2022-08-30T15:13:30.300Z,51.72
2022-08-30T15:16:35.616Z,51.43
2022-08-30T15:19:37.356Z,51.59
2022-08-30T15:22:40.264Z,52.14
2022-08-30T15:25:43.108Z,52.69
2022-08-30T15:28:44.803Z,52.35
2022-08-30T15:31:49.836Z,52.83
2022-08-30T15:34:55.855Z,54.56
2022-08-30T15:37:57.778Z,53.06
2022-08-30T15:41:03.586Z,52.05
2022-08-30T15:44:05.993Z,52.82
2022-08-30T15:47:08.606Z,52.93
2022-08-30T15:50:10.320Z,53.84
2022-08-30T15:53:11.888Z,53.32
2022-08-30T15:56:13.988Z,54.19
2022-08-30T15:59:15.650Z,54.62
2022-08-30T16:02:17.291Z,54.61
2022-08-30T16:05:19.568Z,55.32
2022-08-30T16:08:21.117Z,56.88
2022-08-30T16:11:22.880Z,59.11
2022-08-30T16:14:24.550Z,58.80
2022-08-30T16:17:26.590Z,60.24
2022-08-30T16:20:28.236Z,61.23
2022-08-30T16:23:29.862Z,62.51
2022-08-30T16:26:35.466Z,64.33
2022-08-30T16:29:37.098Z,65.06
2022-08-30T16:32:39.041Z,67.55
2022-08-30T16:35:42.111Z,67.51
2022-08-30T16:38:44.667Z,70.39
2022-08-30T16:41:46.563Z,68.34
2022-08-30T16:44:49.872Z,69.88
2022-08-30T16:47:52.097Z,80.83
2022-08-30T16:50:53.762Z,86.41
2022-08-30T16:53:56.486Z,90.60
2022-08-30T16:56:58.103Z,90.15
2022-08-30T16:59:59.874Z,85.22
2022-08-30T17:03:01.452Z,83.69
2022-08-30T17:06:03.449Z,77.86
2022-08-30T17:09:06.389Z,81.87
2022-08-30T17:12:08.394Z,80.38
2022-08-30T17:15:10.850Z,82.10
2022-08-30T17:18:13.241Z,79.85
2022-08-30T17:21:15.799Z,78.00
2022-08-30T17:24:17.439Z,83.04
2022-08-30T17:27:19.527Z,86.31
2022-08-30T17:30:21.258Z,85.27
2022-08-30T17:33:22.969Z,86.49
2022-08-30T17:36:24.960Z,86.02
2022-08-30T17:39:26.938Z,91.17
2022-08-30T17:42:29.678Z,89.92
2022-08-30T17:45:31.648Z,95.06
2022-08-30T17:48:35.351Z,93.04
2022-08-30T17:51:40.813Z,96.03
2022-08-30T17:54:43.207Z,96.44
2022-08-30T17:57:44.890Z,100.00
2022-08-30T18:00:46.550Z,97.91
2022-08-30T18:03:57.108Z,100.00
2022-08-30T18:07:03.782Z,100.00
2022-08-30T18:10:05.684Z,100.00
2022-08-30T18:13:07.251Z,100.00
2022-08-30T18:16:10.254Z,100.00
2022-08-30T18:19:13.868Z,100.00
2022-08-30T18:22:16.209Z,100.00
2022-08-30T18:25:17.853Z,100.00
2022-08-30T18:28:19.544Z,100.00
2022-08-30T18:31:22.112Z,100.00
2022-08-30T18:34:23.789Z,100.00
2022-08-30T18:37:25.368Z,100.00
2022-08-30T18:40:27.053Z,100.00
2022-08-30T18:43:30.857Z,100.00
2022-08-30T18:46:32.862Z,100.00
2022-08-30T18:49:35.021Z,100.00
2022-08-30T18:52:36.797Z,100.00
2022-08-30T18:55:38.384Z,100.00
2022-08-30T18:58:40.493Z,100.00
2022-08-30T19:01:48.649Z,100.00
2022-08-30T19:04:50.801Z,100.00
2022-08-30T19:07:55.069Z,100.00
2022-08-30T19:14:19.036Z,100.00
2022-08-30T19:17:20.613Z,100.00
2022-08-30T19:20:22.498Z,100.00
2022-08-30T19:23:27.083Z,100.00
2022-08-30T19:26:28.834Z,100.00
2022-08-30T19:29:30.478Z,100.00
2022-08-30T19:32:32.509Z,100.00
2022-08-30T19:35:34.102Z,100.00
2022-08-30T19:38:35.916Z,100.00
2022-08-30T19:41:37.511Z,99.22
2022-08-30T19:44:39.119Z,97.14
2022-08-30T19:47:40.731Z,95.77
2022-08-30T19:50:42.350Z,96.06
2022-08-30T19:53:44.076Z,94.08
2022-08-30T19:56:45.660Z,93.93
2022-08-30T19:59:49.689Z,93.58
2022-08-30T20:02:52.075Z,92.89
2022-08-30T20:05:53.845Z,94.11
2022-08-30T20:08:56.546Z,94.28
2022-08-30T20:11:59.546Z,91.92
2022-08-30T20:15:02.536Z,93.02
2022-08-30T20:18:06.257Z,94.18
2022-08-30T20:21:26.232Z,92.87
2022-08-30T20:24:28.524Z,93.07
2022-08-30T20:24:31.987Z,100.00
2022-08-30T20:27:30.302Z,93.55
2022-08-30T20:30:32.365Z,92.95
2022-08-30T20:33:37.457Z,92.89
2022-08-30T20:36:40.379Z,94.38
2022-08-30T20:39:41.951Z,95.07
2022-08-30T20:42:45.420Z,94.93
2022-08-30T20:45:47.291Z,95.69
2022-08-30T20:48:48.899Z,99.11
2022-08-30T20:51:54.111Z,99.12
2022-08-30T20:54:56.065Z,100.00
2022-08-30T20:57:57.480Z,100.00
2022-08-30T21:00:59.058Z,98.03
2022-08-30T21:04:00.627Z,98.62
2022-08-30T21:07:02.096Z,99.79
2022-08-30T21:10:04.756Z,100.00
2022-08-30T21:13:06.260Z,100.00
2022-08-30T21:16:07.746Z,100.00
2022-08-30T21:19:09.281Z,100.00
2022-08-30T21:22:10.794Z,100.00
2022-08-30T21:25:12.356Z,100.00
2022-08-30T21:28:13.803Z,100.00
2022-08-30T21:31:20.710Z,100.00
2022-08-30T21:34:22.374Z,100.00
2022-08-30T21:37:23.926Z,100.00
2022-08-30T21:40:25.465Z,100.00
2022-08-30T21:43:26.860Z,100.00
2022-08-30T21:46:28.787Z,100.00
2022-08-30T21:49:30.423Z,100.00
2022-08-30T21:52:32.034Z,100.00
2022-08-30T21:55:33.563Z,100.00
2022-08-30T21:58:35.134Z,100.00
2022-08-30T22:01:37.710Z,100.00
2022-08-30T22:04:40.555Z,100.00
2022-08-30T22:07:42.060Z,100.00
2022-08-30T22:10:44.401Z,100.00
2022-08-30T22:13:48.281Z,100.00
2022-08-30T22:16:50.082Z,100.00
2022-08-30T22:19:51.628Z,100.00
2022-08-30T22:22:53.118Z,100.00
2022-08-30T22:25:54.638Z,100.00
2022-08-30T22:28:56.162Z,100.00
2022-08-30T22:31:58.272Z,100.00
2022-08-30T22:34:59.879Z,100.00
2022-08-30T22:38:01.419Z,100.00
2022-08-30T22:41:02.954Z,100.00
2022-08-30T22:44:04.484Z,100.00
2022-08-30T22:47:06.341Z,100.00
2022-08-30T22:50:08.198Z,100.00
2022-08-30T22:53:09.895Z,100.00
2022-08-30T22:56:15.295Z,100.00
2022-08-30T22:59:16.825Z,100.00
2022-08-30T23:02:18.490Z,100.00
2022-08-30T23:05:20.457Z,100.00
2022-08-30T23:08:21.946Z,100.00
2022-08-30T23:11:23.691Z,100.00
2022-08-30T23:14:25.208Z,100.00
2022-08-30T23:17:26.698Z,100.00
2022-08-30T23:20:32.792Z,100.00
2022-08-30T23:23:52.910Z,100.00
2022-08-30T23:27:13.254Z,100.00
2022-08-30T23:30:33.428Z,100.00
2022-08-30T23:33:53.828Z,100.00
2022-08-30T23:37:13.872Z,100.00
2022-08-30T23:40:33.974Z,100.00
2022-08-30T23:43:54.284Z,100.00
2022-08-30T23:47:14.591Z,100.00
2022-08-30T23:50:34.687Z,100.00
2022-08-30T23:53:54.906Z,100.00
2022-08-30T23:57:15.054Z,100.00
